Time;durP1;ratioP1;P1;durP2;ratioP2;P2;SDS_P1;SDS_P2;PMS_P1;PMS_P2;Temp;Humidity;BMP_temperature;BMP_pressure;BME280_temperature;BME280_humidity;BME280_pressure;Samples;Min_cycle;Max_cycle;Signal;HPM_P1;HPM_P2
2022/12/28 00:00:55;;;;;;;2.95;1.02;;;;;;;5.20;77.09;100040.31;5071821;28;20040;-90
2022/12/28 00:03:20;;;;;;;9.65;1.90;;;;;;;5.24;76.70;100039.66;5072050;28;20037;-90
2022/12/28 00:05:45;;;;;;;4.88;2.17;;;;;;;5.24;76.91;100026.16;5071704;28;20354;-90
2022/12/28 00:08:11;;;;;;;10.10;1.90;;;;;;;5.21;77.00;100017.63;5071795;28;20042;-90
2022/12/28 00:10:36;;;;;;;4.65;2.00;;;;;;;5.32;76.52;100022.34;5071884;28;20090;-91
2022/12/28 00:13:01;;;;;;;9.33;1.77;;;;;;;5.21;77.34;100026.59;5071629;28;20028;-90
2022/12/28 00:15:27;;;;;;;3.72;1.40;;;;;;;5.23;77.59;100000.16;5070937;28;20750;-90
2022/12/28 00:17:52;;;;;;;8.30;2.00;;;;;;;5.27;77.78;99997.03;5071130;28;20110;-90
2022/12/28 00:20:17;;;;;;;5.80;1.87;;;;;;;5.30;77.40;100000.09;5069924;28;20285;-90
2022/12/28 00:22:42;;;;;;;5.72;1.80;;;;;;;5.21;77.67;99988.72;5071501;28;20799;-90
2022/12/28 00:25:08;;;;;;;4.40;2.07;;;;;;;5.24;77.31;100004.53;5070563;28;20098;-91
2022/12/28 00:27:33;;;;;;;6.43;1.73;;;;;;;5.27;77.59;100015.94;5070279;28;20462;-90
2022/12/28 00:29:58;;;;;;;5.43;1.88;;;;;;;5.33;77.40;99993.44;5070584;28;20028;-90
2022/12/28 00:32:24;;;;;;;4.37;1.33;;;;;;;5.40;77.75;100010.41;5069381;28;20036;-90
2022/12/28 00:34:49;;;;;;;8.18;2.00;;;;;;;5.35;77.40;100002.13;5070525;28;20269;-89
2022/12/28 00:37:14;;;;;;;5.97;1.92;;;;;;;5.31;77.59;99998.22;5070084;28;20082;-90
2022/12/28 00:39:42;;;;;;;10.05;2.60;;;;;;;5.31;77.85;99995.53;5070124;28;20024;-90
2022/12/28 00:42:08;;;;;;;5.32;2.05;;;;;;;5.28;78.54;100002.19;5070777;28;20035;-90
2022/12/28 00:44:33;;;;;;;6.43;2.42;;;;;;;5.30;78.77;99993.84;5069859;28;20032;-90
2022/12/28 00:46:58;;;;;;;7.35;2.72;;;;;;;5.29;78.48;100009.25;5069935;28;20182;-90
2022/12/28 00:49:23;;;;;;;6.03;1.65;;;;;;;5.38;79.30;99996.25;5070063;28;20020;-90
2022/12/28 00:51:49;;;;;;;4.90;1.70;;;;;;;5.36;79.76;99998.38;5070236;28;20072;-90
2022/12/28 00:54:14;;;;;;;5.60;1.60;;;;;;;5.37;80.70;100000.00;5069328;28;20048;-91
2022/12/28 00:56:41;;;;;;;4.70;1.60;;;;;;;5.37;80.92;100000.00;5069878;28;20064;-90
2022/12/28 00:59:07;;;;;;;7.18;2.00;;;;;;;5.43;81.27;99995.59;5068057;28;20416;-90
2022/12/28 01:01:33;;;;;;;7.13;2.28;;;;;;;5.46;80.94;99976.22;5069561;28;20042;-90
2022/12/28 01:03:58;;;;;;;5.40;1.83;;;;;;;5.33;82.00;99956.38;5069557;28;20040;-91
2022/12/28 01:06:25;;;;;;;6.47;2.17;;;;;;;5.35;82.43;99953.47;5069354;28;20090;-91
2022/12/28 01:08:50;;;;;;;4.78;1.40;;;;;;;5.31;83.04;99946.84;5069790;28;20036;-93
2022/12/28 01:11:21;;;;;;;4.13;1.60;;;;;;;5.30;82.99;99929.78;5067944;28;20041;-91
2022/12/28 01:13:48;;;;;;;7.65;2.17;;;;;;;5.30;83.23;99935.22;5065171;28;20371;-90
2022/12/28 01:16:25;;;;;;;6.43;1.95;;;;;;;5.32;83.41;99940.38;5065975;28;20029;-90
2022/12/28 01:18:55;;;;;;;12.02;3.45;;;;;;;5.27;83.32;99934.84;5066325;28;20024;-90
2022/12/28 01:21:22;;;;;;;9.38;2.13;;;;;;;5.22;83.90;99917.41;5065712;28;20025;-91
2022/12/28 01:23:48;;;;;;;9.68;1.92;;;;;;;5.19;84.53;99915.16;5066252;28;20075;-90
2022/12/28 01:26:14;;;;;;;5.32;2.13;;;;;;;5.12;84.74;99928.75;5068113;28;20521;-91
2022/12/28 01:28:40;;;;;;;5.65;2.35;;;;;;;5.11;85.26;99920.84;5069222;28;20036;-91
2022/12/28 01:31:08;;;;;;;6.55;1.35;;;;;;;5.21;85.54;99921.16;5069225;28;20036;-91
2022/12/28 01:33:33;;;;;;;8.13;2.33;;;;;;;5.22;85.33;99921.97;5069912;28;20032;-91
2022/12/28 01:36:05;;;;;;;4.35;2.28;;;;;;;5.23;86.07;99913.66;5069620;28;20044;-90
2022/12/28 01:38:30;;;;;;;17.13;3.08;;;;;;;5.17;86.40;99909.13;5068982;28;20035;-90
2022/12/28 01:40:55;;;;;;;5.83;1.73;;;;;;;5.18;87.51;99899.16;5069656;28;20036;-91
2022/12/28 01:43:40;;;;;;;5.72;2.05;;;;;;;5.19;87.30;99903.50;5069804;28;20257;-90
2022/12/28 01:46:07;;;;;;;4.97;1.77;;;;;;;5.22;87.22;99901.19;5067860;28;20038;-90
2022/12/28 01:48:34;;;;;;;10.70;2.22;;;;;;;5.23;87.06;99897.44;5068728;28;20146;-90
2022/12/28 01:51:00;;;;;;;4.22;1.50;;;;;;;5.23;87.65;99902.84;5069151;28;20024;-90
2022/12/28 01:53:25;;;;;;;6.80;1.65;;;;;;;5.22;87.48;99887.69;5069060;28;20036;-90
2022/12/28 01:55:51;;;;;;;4.68;1.58;;;;;;;5.26;87.71;99885.34;5068778;28;20089;-90
2022/12/28 01:58:24;;;;;;;6.47;2.57;;;;;;;5.29;87.62;99879.47;5069345;28;20028;-90
2022/12/28 02:00:49;;;;;;;5.63;1.67;;;;;;;5.32;87.46;99867.38;5069481;28;20816;-90
2022/12/28 02:03:21;;;;;;;10.60;2.47;;;;;;;5.24;87.81;99866.66;5068100;28;20159;-91
2022/12/28 02:05:54;;;;;;;5.72;2.42;;;;;;;5.29;87.59;99863.25;5068853;28;20051;-89
2022/12/28 02:08:38;;;;;;;6.32;1.98;;;;;;;5.23;87.89;99869.56;5069701;28;20605;-90
2022/12/28 02:11:04;;;;;;;5.93;2.72;;;;;;;5.30;88.22;99861.38;5069096;28;20025;-91
2022/12/28 02:13:30;;;;;;;6.65;2.20;;;;;;;5.23;88.00;99862.28;5069226;28;20033;-91
2022/12/28 02:15:56;;;;;;;6.25;2.25;;;;;;;5.28;87.99;99856.19;5068807;28;20562;-91
2022/12/28 02:18:24;;;;;;;5.53;2.50;;;;;;;5.37;87.61;99860.22;5069235;28;20037;-90
2022/12/28 02:21:07;;;;;;;4.07;1.77;;;;;;;5.39;87.90;99851.88;5069530;28;20148;-90
2022/12/28 02:23:56;;;;;;;7.15;2.15;;;;;;;5.36;87.96;99839.66;5073091;28;20040;-91
2022/12/28 02:26:43;;;;;;;3.75;1.80;;;;;;;5.44;88.37;99849.34;5073094;28;20040;-90
2022/12/28 02:29:26;;;;;;;4.70;1.40;;;;;;;5.37;88.81;99824.25;5072609;28;20043;-91
2022/12/28 02:32:28;;;;;;;4.25;1.85;;;;;;;5.37;88.90;99837.78;5073058;28;20114;-90
2022/12/28 02:35:01;;;;;;;3.92;1.40;;;;;;;5.41;88.62;99827.34;5088604;28;20444;-91
2022/12/28 02:37:33;;;;;;;3.42;1.73;;;;;;;5.45;88.73;99813.13;5072194;28;20072;-90
2022/12/28 02:40:06;;;;;;;5.35;1.77;;;;;;;5.44;88.70;99795.25;5072568;28;20028;-90
2022/12/28 02:42:35;;;;;;;10.98;2.65;;;;;;;5.41;89.40;99784.88;5072785;28;20028;-90
2022/12/28 02:50:42;;;;;;;6.32;2.45;;;;;;;5.44;89.28;99772.78;5073111;28;20063;-90
2022/12/28 02:53:30;;;;;;;3.83;1.63;;;;;;;5.46;89.67;99776.91;5072525;28;20096;-90
2022/12/28 02:56:14;;;;;;;4.22;1.52;;;;;;;5.44;89.99;99768.22;5071866;28;20025;-90
2022/12/28 02:59:16;;;;;;;9.23;2.08;;;;;;;5.38;90.57;99769.13;5072184;28;20355;-90
2022/12/28 03:02:03;;;;;;;7.97;2.30;;;;;;;5.39;91.10;99765.34;5072756;28;20119;-90
2022/12/28 03:05:09;;;;;;;7.38;2.20;;;;;;;5.43;91.43;99754.94;5072004;28;20105;-90
2022/12/28 03:11:03;;;;;;;5.63;1.75;;;;;;;5.52;91.44;99750.00;5072023;28;20036;-90
2022/12/28 03:13:47;;;;;;;5.10;1.85;;;;;;;5.57;91.98;99739.31;5072251;28;20098;-91
2022/12/28 03:33:23;;;;;;;3.92;1.60;;;;;;;5.70;93.28;99700.41;5070939;28;20043;-91
2022/12/28 03:36:07;;;;;;;5.40;1.83;;;;;;;5.71;92.81;99708.31;5071068;28;20389;-91
2022/12/28 03:38:48;;;;;;;6.70;1.52;;;;;;;5.66;93.62;99700.03;5071725;28;20415;-91
2022/12/28 03:41:20;;;;;;;7.60;1.92;;;;;;;5.67;94.04;99695.47;5071425;28;20109;-91
2022/12/28 03:43:51;;;;;;;5.70;2.13;;;;;;;5.62;94.89;99693.47;5070383;28;20158;-90
2022/12/28 03:46:36;;;;;;;2.47;1.23;;;;;;;5.63;94.87;99678.88;5070916;28;20048;-89
2022/12/28 03:49:02;;;;;;;2.00;1.08;;;;;;;5.70;95.24;99685.00;5071979;28;20043;-90
2022/12/28 03:51:29;;;;;;;6.15;2.05;;;;;;;5.71;94.98;99681.25;5071583;28;20029;-89
2022/12/28 03:53:55;;;;;;;6.53;1.38;;;;;;;5.71;94.86;99681.25;5071886;28;20120;-90
2022/12/28 03:56:24;;;;;;;4.28;1.45;;;;;;;5.73;95.16;99684.50;5070812;28;20119;-89
2022/12/28 03:58:49;;;;;;;5.22;2.15;;;;;;;5.81;95.18;99682.53;5071808;28;20024;-91
2022/12/28 04:01:15;;;;;;;3.92;2.03;;;;;;;5.80;94.76;99678.16;5071426;28;20029;-90
2022/12/28 04:03:41;;;;;;;4.45;1.10;;;;;;;5.77;94.79;99662.41;5070221;28;20033;-90
2022/12/28 04:06:07;;;;;;;4.05;1.52;;;;;;;5.78;94.75;99658.63;5070635;28;20044;-90
2022/12/28 04:08:33;;;;;;;3.22;1.52;;;;;;;5.77;95.24;99655.13;5071299;28;20035;-91
2022/12/28 04:10:59;;;;;;;4.13;1.60;;;;;;;5.79;94.44;99665.72;5071365;28;20068;-90
2022/12/28 04:13:28;;;;;;;5.07;1.77;;;;;;;5.82;94.51;99659.81;5071029;28;20036;-91
2022/12/28 04:15:59;;;;;;;3.42;1.35;;;;;;;5.82;94.73;99659.81;5070175;28;20035;-91
2022/12/28 04:18:24;;;;;;;2.58;0.93;;;;;;;5.78;94.64;99653.22;5071121;28;20063;-91
2022/12/28 04:20:50;;;;;;;5.78;2.25;;;;;;;5.88;94.70;99647.25;5070727;28;20477;-90
2022/12/28 04:23:15;;;;;;;5.10;1.70;;;;;;;5.84;94.27;99646.88;5071164;28;20029;-91
2022/12/28 04:25:40;;;;;;;7.03;1.17;;;;;;;5.94;93.80;99641.69;5070747;28;20461;-90
2022/12/28 04:28:05;;;;;;;4.65;1.70;;;;;;;5.95;94.04;99643.34;5070097;28;20116;-90
2022/12/28 04:30:31;;;;;;;4.00;1.20;;;;;;;5.91;93.63;99647.59;5070971;28;20029;-91
2022/12/28 04:32:56;;;;;;;5.27;1.37;;;;;;;5.99;93.94;99637.47;5069867;28;20261;-91
2022/12/28 04:35:21;;;;;;;7.47;3.47;;;;;;;5.95;93.99;99612.75;5070191;28;20504;-91
2022/12/28 04:37:46;;;;;;;3.23;1.63;;;;;;;5.92;94.10;99622.16;5069909;28;20301;-90
2022/12/28 04:40:12;;;;;;;3.60;1.90;;;;;;;5.96;94.44;99623.34;5071691;28;20253;-91
2022/12/28 04:42:37;;;;;;;3.25;1.20;;;;;;;5.96;94.25;99620.63;5069524;28;20531;-91
2022/12/28 04:45:03;;;;;;;6.90;1.40;;;;;;;5.98;94.72;99609.56;5070077;28;20111;-90
2022/12/28 04:47:28;;;;;;;8.13;1.90;;;;;;;6.06;94.69;99630.09;5069440;28;20277;-91
2022/12/28 04:49:53;;;;;;;4.43;1.95;;;;;;;6.09;94.58;99624.19;5068918;28;20466;-90
2022/12/28 04:52:21;;;;;;;11.77;3.28;;;;;;;6.12;94.89;99604.75;5069906;28;20037;-91
2022/12/28 04:54:46;;;;;;;4.22;2.25;;;;;;;6.12;95.02;99604.75;5069966;28;20084;-91
2022/12/28 04:57:12;;;;;;;6.30;1.77;;;;;;;6.03;95.61;99601.56;5069330;28;20123;-90
2022/12/28 04:59:39;;;;;;;3.08;1.38;;;;;;;6.03;95.82;99590.75;5070398;28;20025;-91
2022/12/28 05:02:04;;;;;;;4.70;1.95;;;;;;;6.17;96.03;99591.31;5070384;28;20028;-89
2022/12/28 05:04:29;;;;;;;5.97;1.37;;;;;;;6.14;96.50;99608.03;5070243;28;20525;-90
2022/12/28 05:06:54;;;;;;;3.57;1.50;;;;;;;6.06;97.01;99598.41;5069440;28;20264;-87
2022/12/28 05:09:20;;;;;;;10.65;1.73;;;;;;;6.15;97.22;99598.88;5070010;28;20262;-90
2022/12/28 05:11:45;;;;;;;4.80;1.77;;;;;;;6.12;97.15;99596.63;5069543;28;20040;-89
2022/12/28 05:14:10;;;;;;;3.50;2.03;;;;;;;6.08;97.99;99573.81;5070532;28;20086;-90
2022/12/28 05:16:35;;;;;;;3.65;1.55;;;;;;;6.08;98.42;99581.94;5069243;28;20275;-89
2022/12/28 05:19:01;;;;;;;4.20;1.47;;;;;;;6.02;98.83;99583.66;5069831;28;20070;-89
2022/12/28 05:21:27;;;;;;;2.42;1.02;;;;;;;6.11;98.72;99581.44;5069442;28;20253;-89
2022/12/28 05:23:53;;;;;;;2.72;1.27;;;;;;;6.13;98.50;99573.09;5069478;28;20041;-91
2022/12/28 05:26:21;;;;;;;4.85;1.30;;;;;;;6.14;98.81;99586.38;5069562;28;20028;-91
2022/12/28 05:28:47;;;;;;;4.07;1.60;;;;;;;6.16;99.15;99584.25;5069267;28;20046;-89
2022/12/28 05:31:14;;;;;;;3.00;1.20;;;;;;;6.14;99.28;99580.97;5069702;28;20104;-90
2022/12/28 05:33:41;;;;;;;3.17;1.48;;;;;;;6.25;98.94;99581.16;5069653;28;20029;-91
2022/12/28 05:36:15;;;;;;;5.65;1.52;;;;;;;6.28;98.60;99581.53;5069362;28;20095;-90
2022/12/28 05:38:40;;;;;;;2.75;0.80;;;;;;;6.25;98.82;99586.59;5068721;28;20021;-90
2022/12/28 05:41:18;;;;;;;4.03;1.40;;;;;;;6.23;99.45;99578.72;5068515;28;20504;-90
2022/12/28 05:43:45;;;;;;;5.25;1.27;;;;;;;6.20;98.88;99579.22;5069308;28;20028;-90
2022/12/28 05:46:14;;;;;;;4.13;1.30;;;;;;;6.27;98.95;99573.63;5068587;28;20064;-90
2022/12/28 05:48:41;;;;;;;3.60;1.58;;;;;;;6.27;98.93;99579.88;5068944;28;20101;-91
2022/12/28 05:51:08;;;;;;;5.75;2.47;;;;;;;6.33;98.84;99578.09;5068926;28;20042;-90
2022/12/28 05:53:35;;;;;;;3.70;1.20;;;;;;;6.35;98.69;99588.66;5067799;28;20033;-90
2022/12/28 05:56:09;;;;;;;2.97;1.10;;;;;;;6.28;99.29;99596.94;5068816;28;20086;-90
2022/12/28 05:58:34;;;;;;;;;;;;;;;6.23;100.00;99584.13;5069596;28;20021;-91
2022/12/28 06:01:14;;;;;;;4.37;1.40;;;;;;;6.29;99.85;99571.50;5069035;28;19962;-90
2022/12/28 06:03:40;;;;;;;6.50;1.92;;;;;;;6.25;100.00;99581.16;5068523;28;20098;-90
2022/12/28 06:06:13;;;;;;;3.95;1.85;;;;;;;6.22;100.00;99577.09;5068240;28;20055;-90
2022/12/28 06:08:40;;;;;;;5.85;1.20;;;;;;;6.28;100.00;99569.88;5069110;28;20050;-91
2022/12/28 06:11:09;;;;;;;3.47;2.45;;;;;;;6.36;100.00;99577.63;5069122;28;20320;-91
2022/12/28 06:13:35;;;;;;;4.32;1.55;;;;;;;6.34;99.90;99574.34;5069044;28;20039;-90
2022/12/28 06:16:05;;;;;;;4.15;1.63;;;;;;;6.39;100.00;99576.28;5068614;28;20025;-90
2022/12/28 06:18:30;;;;;;;3.50;1.50;;;;;;;6.45;99.72;99574.53;5068365;28;20036;-90
2022/12/28 06:21:04;;;;;;;3.17;1.27;;;;;;;6.40;100.00;99567.13;5069021;28;20040;-90
2022/12/28 06:23:29;;;;;;;3.90;2.03;;;;;;;6.35;100.00;99567.84;5069129;28;20256;-90
2022/12/28 06:25:57;;;;;;;3.90;1.52;;;;;;;6.27;100.00;99568.22;5071317;28;20697;-90
2022/12/28 06:28:23;;;;;;;3.28;1.85;;;;;;;6.26;100.00;99553.88;5070340;28;20048;-90
2022/12/28 06:30:48;;;;;;;9.10;3.07;;;;;;;6.35;100.00;99565.13;5069937;28;20028;-91
2022/12/28 06:33:13;;;;;;;2.70;1.50;;;;;;;6.36;100.00;99566.78;5069193;28;20359;-91
2022/12/28 06:35:41;;;;;;;13.77;2.00;;;;;;;6.31;100.00;99563.97;5067874;28;20277;-91
2022/12/28 06:38:06;;;;;;;5.55;1.55;;;;;;;6.34;100.00;99574.34;5068682;28;20521;-90
2022/12/28 06:40:32;;;;;;;3.33;1.45;;;;;;;6.48;100.00;99561.31;5068428;28;20474;-90
2022/12/28 06:42:57;;;;;;;4.35;2.03;;;;;;;6.51;100.00;99558.13;5068421;28;20283;-90
2022/12/28 06:45:22;;;;;;;5.32;2.00;;;;;;;6.58;100.00;99563.38;5068059;28;20386;-90
2022/12/28 06:47:48;;;;;;;2.72;1.30;;;;;;;6.56;100.00;99564.69;5067966;28;20045;-90
2022/12/28 06:50:13;;;;;;;2.80;1.40;;;;;;;6.53;100.00;99571.41;5068661;28;20036;-90
2022/12/28 06:52:38;;;;;;;3.13;1.33;;;;;;;6.49;100.00;99570.28;5068301;28;20264;-90
2022/12/28 06:55:04;;;;;;;3.92;1.80;;;;;;;6.59;100.00;99565.03;5069189;28;20041;-90
2022/12/28 06:57:29;;;;;;;2.67;1.08;;;;;;;6.59;100.00;99566.94;5067803;28;20539;-90
2022/12/28 06:59:54;;;;;;;5.33;2.07;;;;;;;6.54;100.00;99573.06;5068620;28;20033;-90
2022/12/28 07:02:19;;;;;;;3.57;1.10;;;;;;;6.63;100.00;99570.81;5068295;28;20257;-90
2022/12/28 07:04:45;;;;;;;6.27;1.17;;;;;;;6.58;100.00;99571.50;5068094;28;20260;-90
2022/12/28 07:07:10;;;;;;;3.55;1.45;;;;;;;6.67;100.00;99571.13;5067716;28;20271;-91
2022/12/28 07:09:35;;;;;;;2.35;0.80;;;;;;;6.74;100.00;99567.19;5070869;28;20036;-90
2022/12/28 07:12:00;;;;;;;2.67;1.10;;;;;;;6.67;100.00;99581.97;5072413;28;20039;-90
2022/12/28 07:14:28;;;;;;;3.67;1.30;;;;;;;6.61;100.00;99568.31;5071304;28;20336;-90
2022/12/28 07:16:53;;;;;;;5.07;1.52;;;;;;;6.66;100.00;99564.88;5071099;28;20265;-91
2022/12/28 07:19:19;;;;;;;3.47;1.23;;;;;;;6.54;100.00;99570.34;5070601;28;20039;-90
2022/12/28 07:21:44;;;;;;;5.72;2.50;;;;;;;6.64;100.00;99567.84;5071358;28;20284;-89
2022/12/28 07:24:09;;;;;;;4.88;1.98;;;;;;;6.69;100.00;99558.16;5071023;28;20030;-90
2022/12/28 07:26:36;;;;;;;5.47;1.58;;;;;;;6.67;100.00;99560.28;5070989;28;20281;-91
2022/12/28 07:29:04;;;;;;;4.65;1.10;;;;;;;6.68;100.00;99554.63;5072378;28;20074;-91
2022/12/28 07:31:33;;;;;;;4.53;1.40;;;;;;;6.74;100.00;99563.66;5071765;28;20033;-91
2022/12/28 07:33:59;;;;;;;5.13;2.03;;;;;;;6.79;100.00;99562.94;5071688;28;20036;-91
2022/12/28 07:36:26;;;;;;;3.38;1.52;;;;;;;6.85;100.00;99546.53;5086934;28;20028;-91
2022/12/28 07:38:58;;;;;;;4.35;1.70;;;;;;;6.79;100.00;99542.09;5070596;28;20028;-91
2022/12/28 07:41:35;;;;;;;6.47;1.45;;;;;;;6.71;100.00;99550.59;5071565;28;20090;-92
2022/12/28 07:44:01;;;;;;;4.93;1.40;;;;;;;6.68;100.00;99548.38;5071880;28;20032;-92
2022/12/28 07:46:32;;;;;;;1.75;0.85;;;;;;;6.76;100.00;99550.69;5071050;28;20049;-92
2022/12/28 07:48:58;;;;;;;3.17;1.30;;;;;;;6.65;100.00;99542.38;5071256;28;20028;-91
2022/12/28 07:51:29;;;;;;;3.95;1.73;;;;;;;6.70;100.00;99538.13;5071370;28;20102;-93
2022/12/28 07:53:55;;;;;;;2.15;0.93;;;;;;;6.66;100.00;99548.63;5071802;28;20035;-93
2022/12/28 07:56:22;;;;;;;2.10;1.25;;;;;;;6.78;100.00;99545.84;5071386;28;20038;-92
2022/12/28 07:58:50;;;;;;;4.30;1.40;;;;;;;6.82;100.00;99552.41;5070968;28;20477;-93
2022/12/28 08:01:17;;;;;;;4.05;1.30;;;;;;;6.85;100.00;99551.94;5070057;28;20131;-91
2022/12/28 08:03:43;;;;;;;3.38;1.17;;;;;;;6.74;100.00;99544.69;5070710;28;20503;-88
2022/12/28 08:06:11;;;;;;;4.18;1.40;;;;;;;6.74;100.00;99544.69;5067594;28;20119;-87
2022/12/28 08:08:40;;;;;;;7.95;1.85;;;;;;;6.76;100.00;99546.09;5070419;28;20040;-82
2022/12/28 08:11:16;;;;;;;3.40;1.73;;;;;;;6.88;100.00;99542.47;5069776;28;20032;-82
2022/12/28 08:13:44;;;;;;;4.50;1.88;;;;;;;6.92;100.00;99543.63;5070126;28;20559;-80
2022/12/28 08:16:11;;;;;;;3.38;1.50;;;;;;;6.99;100.00;99536.19;5069858;28;20032;-89
2022/12/28 08:18:37;;;;;;;2.97;1.35;;;;;;;6.89;100.00;99547.66;5071573;28;20444;-89
2022/12/28 08:21:06;;;;;;;2.08;1.05;;;;;;;6.84;100.00;99539.44;5071420;28;20032;-89
2022/12/28 08:23:32;;;;;;;5.57;1.70;;;;;;;6.87;100.00;99547.09;5070944;28;20040;-88
2022/12/28 08:26:19;;;;;;;6.55;1.67;;;;;;;6.85;100.00;99538.41;5070794;28;20038;-90
2022/12/28 08:28:45;;;;;;;3.35;1.65;;;;;;;6.93;100.00;99545.28;5071331;28;20048;-94
2022/12/28 08:31:14;;;;;;;5.10;2.00;;;;;;;6.88;100.00;99546.03;5071269;28;20039;-90
2022/12/28 08:33:40;;;;;;;3.00;1.58;;;;;;;6.85;100.00;99540.28;5071293;28;20075;-89
2022/12/28 08:36:06;;;;;;;4.03;1.85;;;;;;;6.91;100.00;99538.47;5070874;28;20029;-92
2022/12/28 08:38:32;;;;;;;3.63;1.70;;;;;;;6.87;100.00;99544.41;5069483;28;20040;-89
2022/12/28 08:41:00;;;;;;;3.95;2.25;;;;;;;6.87;100.00;99544.41;5070543;28;20041;-90
2022/12/28 08:43:29;;;;;;;4.40;1.95;;;;;;;6.93;100.00;99526.31;5071546;28;20147;-91
2022/12/28 08:45:59;;;;;;;4.20;1.90;;;;;;;6.94;100.00;99535.25;5072428;28;20028;-90
2022/12/28 08:48:25;;;;;;;4.60;1.98;;;;;;;6.92;100.00;99527.38;5070952;28;20142;-90
2022/12/28 08:50:51;;;;;;;4.00;2.30;;;;;;;6.86;100.00;99531.91;5070062;28;20470;-92
2022/12/28 08:53:16;;;;;;;9.07;1.60;;;;;;;6.89;100.00;99533.31;5070214;28;20105;-89
2022/12/28 08:55:41;;;;;;;8.05;2.85;;;;;;;6.91;100.00;99538.47;5070878;28;22509;-89
2022/12/28 08:58:06;;;;;;;5.57;1.83;;;;;;;6.96;100.00;99525.81;5069885;28;20040;-88
2022/12/28 09:00:31;;;;;;;5.07;1.20;;;;;;;6.93;100.00;99536.34;5071097;28;20738;-89
2022/12/28 09:03:00;;;;;;;5.07;1.85;;;;;;;6.95;100.00;99537.75;5071081;28;20281;-87
2022/12/28 09:05:25;;;;;;;7.07;3.00;;;;;;;6.96;100.00;99531.22;5070191;28;20035;-89
2022/12/28 09:07:51;;;;;;;3.30;1.50;;;;;;;7.02;100.00;99534.84;5070205;28;20028;-88
2022/12/28 09:10:16;;;;;;;3.35;1.48;;;;;;;7.08;100.00;99546.59;5070564;28;20253;-91
2022/12/28 09:12:42;;;;;;;4.70;1.55;;;;;;;6.96;100.00;99536.66;5070907;28;20073;-88
2022/12/28 09:15:08;;;;;;;2.22;1.20;;;;;;;7.05;100.00;99545.22;5070370;28;20385;-88
2022/12/28 09:17:33;;;;;;;3.95;1.40;;;;;;;6.97;100.00;99542.91;5069372;28;20051;-86
2022/12/28 09:19:58;;;;;;;4.35;1.63;;;;;;;7.08;100.00;99550.13;5069462;28;20031;-88
2022/12/28 09:22:23;;;;;;;2.77;1.10;;;;;;;7.17;100.00;99542.41;5068332;28;20076;-88
2022/12/28 09:24:49;;;;;;;4.50;1.90;;;;;;;7.14;100.00;99542.09;5070472;28;20265;-88
2022/12/28 09:27:14;;;;;;;2.95;1.27;;;;;;;7.20;100.00;99543.81;5068026;28;20497;-89
2022/12/28 09:29:39;;;;;;;3.53;1.47;;;;;;;7.21;100.00;99542.72;5069374;28;20086;-89
2022/12/28 09:32:04;;;;;;;6.53;2.80;;;;;;;7.29;100.00;99542.31;5069227;28;20853;-88
2022/12/28 09:34:30;;;;;;;2.87;1.33;;;;;;;7.23;100.00;99540.59;5068926;28;20621;-89
2022/12/28 09:36:56;;;;;;;3.95;1.67;;;;;;;7.26;100.00;99539.28;5069711;28;20269;-89
2022/12/28 09:39:23;;;;;;;4.78;1.83;;;;;;;7.25;100.00;99541.16;5069362;28;20109;-89
2022/12/28 09:41:54;;;;;;;3.42;1.50;;;;;;;7.30;100.00;99538.53;5069914;28;20036;-90
2022/12/28 09:44:43;;;;;;;4.43;1.85;;;;;;;7.39;100.00;99541.66;5067220;28;20072;-82
2022/12/28 09:47:38;;;;;;;5.25;1.15;;;;;;;7.48;100.00;99540.13;5069034;28;20560;-89
2022/12/28 09:50:27;;;;;;;2.60;0.90;;;;;;;7.54;100.00;99545.66;5067742;28;20592;-89
2022/12/28 09:53:18;;;;;;;3.80;1.13;;;;;;;7.62;100.00;99545.22;5066654;28;20033;-89
2022/12/28 09:55:56;;;;;;;1.85;1.00;;;;;;;7.56;100.00;99549.75;5070414;28;20040;-90
2022/12/28 09:58:21;;;;;;;5.55;1.17;;;;;;;7.62;99.41;99541.69;5067899;28;20032;-91
2022/12/28 10:00:59;;;;;;;4.40;1.38;;;;;;;7.67;99.22;99541.75;5069939;28;20059;-91
2022/12/28 10:03:34;;;;;;;2.00;0.90;;;;;;;7.65;99.11;99535.75;5069046;28;20084;-92
2022/12/28 10:06:01;;;;;;;2.33;1.40;;;;;;;7.60;99.28;99536.50;5069020;28;20040;-93
2022/12/28 10:08:28;;;;;;;6.45;1.60;;;;;;;7.71;99.10;99526.59;5069767;28;20122;-91
2022/12/28 10:10:58;;;;;;;4.28;0.90;;;;;;;7.60;98.92;99531.09;5069482;28;20072;-84
2022/12/28 10:13:26;;;;;;;4.05;1.65;;;;;;;7.70;98.97;99523.09;5070139;28;20044;-90
2022/12/28 10:15:52;;;;;;;3.40;1.38;;;;;;;7.79;98.40;99530.78;5069002;28;20028;-86
2022/12/28 10:18:22;;;;;;;4.28;1.25;;;;;;;7.73;97.96;99521.75;5069151;28;20595;-86
2022/12/28 10:20:48;;;;;;;2.80;1.35;;;;;;;7.77;97.75;99517.44;5068829;28;20123;-88
2022/12/28 10:23:18;;;;;;;2.58;1.13;;;;;;;7.78;97.69;99519.09;5068827;28;20123;-85
2022/12/28 10:25:45;;;;;;;1.83;0.90;;;;;;;7.84;97.44;99509.13;5069474;28;20033;-87
2022/12/28 10:28:10;;;;;;;1.73;0.80;;;;;;;7.85;97.14;99501.81;5069519;28;20044;-86
2022/12/28 10:30:48;;;;;;;4.90;2.22;;;;;;;7.85;97.09;99501.81;5070108;28;20094;-85
2022/12/28 10:33:18;;;;;;;2.95;0.90;;;;;;;7.74;97.09;99509.84;5069362;28;20043;-83
2022/12/28 10:35:53;;;;;;;1.60;0.93;;;;;;;7.76;97.84;99504.97;5068218;28;20040;-84
2022/12/28 10:38:22;;;;;;;2.90;1.00;;;;;;;7.75;97.44;99507.94;5069127;28;20068;-84
2022/12/28 10:40:58;;;;;;;3.15;1.50;;;;;;;7.72;97.67;99495.69;5067733;28;20401;-84
2022/12/28 10:43:27;;;;;;;3.55;0.95;;;;;;;7.82;97.08;99495.81;5071109;28;20052;-83
2022/12/28 10:45:54;;;;;;;3.65;1.10;;;;;;;7.86;96.89;99492.59;5069964;28;20545;-83
2022/12/28 10:48:28;;;;;;;3.17;1.20;;;;;;;7.81;97.15;99490.66;5070904;28;20052;-84
2022/12/28 10:51:08;;;;;;;1.80;0.90;;;;;;;7.95;96.73;99485.66;5071544;28;20436;-87
2022/12/28 10:53:43;;;;;;;2.97;0.77;;;;;;;7.97;96.49;99478.06;5072155;28;20490;-83
2022/12/28 10:56:11;;;;;;;2.78;1.23;;;;;;;8.01;96.16;99472.94;5071127;28;20036;-84
2022/12/28 10:58:38;;;;;;;2.85;1.05;;;;;;;7.99;96.36;99466.94;5071824;28;20068;-83
2022/12/28 11:01:10;;;;;;;3.42;1.10;;;;;;;7.93;96.05;99463.38;5072584;28;20051;-85
2022/12/28 11:03:37;;;;;;;1.83;0.80;;;;;;;7.89;96.05;99464.94;5072991;28;20541;-86
2022/12/28 11:06:18;;;;;;;2.95;1.67;;;;;;;7.95;96.41;99458.50;5072300;28;20055;-87
2022/12/28 11:08:58;;;;;;;2.63;0.73;;;;;;;7.96;96.31;99452.00;5071449;28;20078;-86
2022/12/28 11:11:23;;;;;;;1.42;0.70;;;;;;;7.96;96.19;99459.31;5070828;28;20468;-82
2022/12/28 11:13:55;;;;;;;1.75;0.82;;;;;;;8.00;96.12;99449.56;5073098;28;20016;-83
2022/12/28 11:16:20;;;;;;;1.33;0.60;;;;;;;8.04;95.88;99446.09;5070241;28;20252;-88
2022/12/28 11:18:46;;;;;;;2.13;0.63;;;;;;;8.03;96.04;99440.94;5070861;28;20024;-87
2022/12/28 11:21:18;;;;;;;1.27;0.60;;;;;;;8.06;96.38;99449.38;5072148;28;20028;-88
2022/12/28 11:23:44;;;;;;;3.78;0.73;;;;;;;7.98;96.89;99435.44;5071001;28;20032;-90
2022/12/28 11:26:11;;;;;;;3.33;1.00;;;;;;;7.99;97.45;99431.66;5070758;28;20488;-86
2022/12/28 11:28:40;;;;;;;1.08;0.73;;;;;;;7.96;97.87;99432.16;5072547;28;20119;-88
2022/12/28 11:31:07;;;;;;;1.77;0.68;;;;;;;7.93;98.41;99428.09;5072240;28;20090;-85
2022/12/28 11:33:49;;;;;;;1.38;0.60;;;;;;;7.97;98.45;99434.63;5069971;28;20043;-86
2022/12/28 11:36:21;;;;;;;3.33;1.13;;;;;;;8.01;98.80;99429.50;5069937;28;20046;-86
2022/12/28 11:38:48;;;;;;;2.05;0.57;;;;;;;7.98;98.50;99433.56;5071288;28;20032;-85
2022/12/28 11:41:40;;;;;;;2.63;1.00;;;;;;;8.01;99.06;99419.47;5068639;28;20032;-88
2022/12/28 11:44:19;;;;;;;2.42;0.85;;;;;;;8.02;99.00;99425.72;5066332;28;20064;-86
2022/12/28 11:47:15;;;;;;;3.25;0.95;;;;;;;7.99;99.49;99424.34;5069019;28;20055;-86
2022/12/28 11:49:41;;;;;;;1.80;0.90;;;;;;;8.01;99.59;99408.63;5067803;28;20078;-85
2022/12/28 11:52:43;;;;;;;2.25;0.88;;;;;;;8.06;99.56;99422.22;5069688;28;20036;-82
2022/12/28 11:55:20;;;;;;;5.05;1.20;;;;;;;8.20;99.30;99421.00;5070882;28;20313;-85
2022/12/28 11:57:45;;;;;;;2.85;0.80;;;;;;;8.13;99.48;99411.19;5069164;28;20409;-88
2022/12/28 12:00:20;;;;;;;1.55;0.82;;;;;;;8.11;99.18;99420.66;5070593;28;20036;-85
2022/12/28 12:02:48;;;;;;;2.25;1.17;;;;;;;8.06;99.72;99411.38;5070616;28;20056;-85
2022/12/28 12:05:35;;;;;;;2.05;0.80;;;;;;;8.09;99.65;99406.50;5070423;28;20108;-84
2022/12/28 12:08:02;;;;;;;3.33;1.23;;;;;;;8.11;99.60;99416.03;5069559;28;20128;-86
2022/12/28 12:10:35;;;;;;;2.90;1.23;;;;;;;8.00;99.98;99406.97;5071274;28;20029;-87
2022/12/28 12:13:21;;;;;;;2.88;1.25;;;;;;;8.05;100.00;99409.72;5070765;28;20052;-87
2022/12/28 12:15:48;;;;;;;3.65;1.25;;;;;;;8.06;100.00;99414.09;5067533;28;20036;-85